RJSK

Akita Airport

Akita, Japan
METAR RJSK 192200Z 15002KT 9999 VCSH FEW005 BKN050 BKN070 02/01 Q1019
Observed Flight Rules
Nov-19 @ 22:00 UTC (17 minutes ago) Visual Flight Rules
Wind Visibility Clouds
150° at 2 knots 10,000+ meters
  • Few at 500' AGL
  • Broken at 5,000' AGL
  • Broken at 7,000' AGL
Temperatures Readings
Current 2°C / 36°F
Dewpoint 1°C / 34°F
Humidity 93%
Altimeter 30.09" Hg
Pressure 1019 hPa
Elevation 96
METAR RJSK 192200Z 15002KT 9999 VCSH FEW005 BKN050 BKN070 02/01 Q1019
Observed Flight Rules
Nov-19 @ 22:00 UTC
(17 minutes ago)
VFR
Wind Visibility
150° at 2 knots 10,000+ meters
Clouds
  • Few at 500' AGL
  • Broken at 5,000' AGL
  • Broken at 7,000' AGL
Temperature Dewpoint
2°C / 36°F 1°C / 34°F
Humidity Altimeter Pressure
93% 30.09" Hg 1019 hPa